Time;durP1;ratioP1;P1;durP2;ratioP2;P2;SDS_P1;SDS_P2;PMS_P1;PMS_P2;Temp;Humidity;BMP_temperature;BMP_pressure;BME280_temperature;BME280_humidity;BME280_pressure;Samples;Min_cycle;Max_cycle;Signal;HPM_P1;HPM_P2
2023/10/20 00:00:32;;;;;;;11.38;8.10;;;8.80;99.90;;;;;;5033578;28;20199;-67
2023/10/20 00:02:58;;;;;;;14.30;10.98;;;8.90;99.90;;;;;;5033735;28;20184;-67
2023/10/20 00:05:24;;;;;;;16.90;11.25;;;8.80;99.90;;;;;;5033414;28;20207;-67
2023/10/20 00:07:50;;;;;;;15.50;10.95;;;8.80;99.90;;;;;;5033508;28;20227;-67
2023/10/20 00:10:17;;;;;;;15.30;10.93;;;8.80;99.90;;;;;;5033243;28;20184;-67
2023/10/20 00:12:43;;;;;;;16.15;10.85;;;8.80;99.90;;;;;;5032389;28;20188;-66
2023/10/20 00:15:13;;;;;;;14.82;9.90;;;8.80;99.90;;;;;;5033557;28;20647;-67
2023/10/20 00:17:41;;;;;;;12.73;7.68;;;8.80;99.90;;;;;;5033695;28;20176;-67
2023/10/20 00:20:09;;;;;;;15.07;10.95;;;8.80;99.90;;;;;;5015798;28;20189;-67
2023/10/20 00:22:35;;;;;;;18.48;11.13;;;8.80;99.90;;;;;;5033320;28;20191;-67
2023/10/20 00:25:01;;;;;;;16.98;11.20;;;8.80;99.90;;;;;;5033008;28;20260;-68
2023/10/20 00:27:28;;;;;;;13.95;10.05;;;8.80;99.90;;;;;;5032864;28;20207;-67
2023/10/20 00:29:55;;;;;;;14.35;10.27;;;8.80;99.90;;;;;;5032774;28;20710;-68
2023/10/20 00:32:21;;;;;;;16.63;10.77;;;8.80;99.90;;;;;;4999193;28;20188;-66
2023/10/20 00:34:47;;;;;;;17.90;11.90;;;8.80;99.90;;;;;;5032970;28;20612;-68
2023/10/20 00:37:14;;;;;;;13.68;10.35;;;8.80;99.90;;;;;;5033718;28;20191;-67
2023/10/20 00:39:39;;;;;;;14.07;9.40;;;8.80;99.90;;;;;;5032816;28;20183;-66
2023/10/20 00:42:06;;;;;;;18.08;11.05;;;8.80;99.90;;;;;;5015144;28;20184;-68
2023/10/20 00:44:32;;;;;;;15.75;10.25;;;8.80;99.90;;;;;;5032900;28;20184;-67
2023/10/20 00:46:59;;;;;;;16.83;10.82;;;8.80;99.90;;;;;;5032585;28;20751;-68
2023/10/20 00:49:25;;;;;;;15.95;10.63;;;8.80;99.90;;;;;;5014761;28;20644;-68
2023/10/20 00:51:52;;;;;;;15.77;11.07;;;8.80;99.90;;;;;;5015191;28;20588;-68
2023/10/20 00:54:20;;;;;;;16.23;10.60;;;8.80;99.90;;;;;;5032547;28;20632;-68
2023/10/20 00:56:47;;;;;;;14.02;9.65;;;8.80;99.90;;;;;;5032543;28;20187;-68
2023/10/20 00:59:13;;;;;;;17.10;10.80;;;8.90;99.90;;;;;;5014838;28;20600;-68
2023/10/20 01:01:39;;;;;;;17.73;11.50;;;8.90;99.90;;;;;;5015008;28;20187;-67
2023/10/20 01:04:06;;;;;;;17.50;11.50;;;8.80;99.90;;;;;;5032230;28;20194;-66
2023/10/20 01:06:32;;;;;;;17.35;12.25;;;8.90;99.90;;;;;;5014689;28;20250;-66
2023/10/20 01:08:58;;;;;;;20.40;11.90;;;8.90;99.90;;;;;;5032515;28;20233;-67
2023/10/20 01:11:25;;;;;;;17.83;12.00;;;8.80;99.90;;;;;;5032501;28;20187;-66
2023/10/20 01:13:51;;;;;;;18.33;11.90;;;8.90;99.90;;;;;;5032366;28;20184;-66
2023/10/20 01:16:20;;;;;;;20.17;13.52;;;8.90;99.90;;;;;;5032333;28;20191;-66
2023/10/20 01:18:46;;;;;;;23.85;13.88;;;8.80;99.90;;;;;;5032283;28;20241;-66
2023/10/20 01:21:12;;;;;;;21.85;14.45;;;8.80;99.90;;;;;;4998745;28;20262;-67
2023/10/20 01:23:38;;;;;;;21.90;13.40;;;8.80;99.90;;;;;;5013776;28;20226;-68
2023/10/20 01:26:07;;;;;;;24.27;15.32;;;8.80;99.90;;;;;;5031729;28;20176;-67
2023/10/20 01:28:33;;;;;;;24.80;15.93;;;8.80;99.90;;;;;;5032098;28;20277;-68
2023/10/20 01:30:59;;;;;;;22.30;14.57;;;8.80;99.90;;;;;;5014146;28;20192;-65
2023/10/20 01:33:25;;;;;;;24.33;16.35;;;8.80;99.90;;;;;;5030560;28;20179;-67
2023/10/20 01:35:51;;;;;;;24.70;14.82;;;8.80;99.90;;;;;;5031948;28;20188;-66
2023/10/20 01:38:17;;;;;;;24.88;15.20;;;8.80;99.90;;;;;;5014522;28;20215;-68
2023/10/20 01:40:45;;;;;;;20.50;13.15;;;8.80;99.90;;;;;;5014508;28;20561;-66
2023/10/20 01:43:11;;;;;;;27.90;16.33;;;8.70;99.90;;;;;;5031665;28;20284;-67
2023/10/20 01:45:37;;;;;;;28.45;16.83;;;8.70;99.90;;;;;;5031758;28;20210;-67
2023/10/20 01:48:03;;;;;;;23.83;15.40;;;8.70;99.90;;;;;;5031980;28;20273;-66
2023/10/20 01:50:29;;;;;;;31.85;17.60;;;8.80;99.90;;;;;;5013849;28;20245;-67
2023/10/20 01:52:55;;;;;;;28.60;15.82;;;8.80;99.90;;;;;;5031511;28;20180;-66
2023/10/20 01:55:22;;;;;;;31.85;17.05;;;8.80;99.90;;;;;;5013989;28;20198;-68
2023/10/20 01:57:47;;;;;;;28.25;17.17;;;8.80;99.90;;;;;;5013761;28;20660;-67
2023/10/20 02:00:14;;;;;;;27.67;17.50;;;8.80;99.90;;;;;;5031223;28;20225;-67
2023/10/20 02:02:41;;;;;;;28.88;17.83;;;8.70;99.90;;;;;;5014080;28;20539;-67
2023/10/20 02:05:12;;;;;;;29.20;16.83;;;8.80;99.90;;;;;;5013579;28;20180;-67
2023/10/20 02:07:39;;;;;;;31.05;18.38;;;8.70;99.90;;;;;;5031639;28;20326;-68
2023/10/20 02:10:06;;;;;;;33.38;18.80;;;8.80;99.90;;;;;;5013872;28;20214;-67
2023/10/20 02:12:33;;;;;;;27.90;17.60;;;8.80;99.90;;;;;;5014403;28;20203;-67
2023/10/20 02:14:59;;;;;;;29.17;18.35;;;8.80;99.90;;;;;;5014210;28;20183;-68
2023/10/20 02:17:25;;;;;;;28.73;19.17;;;8.80;99.90;;;;;;5032125;28;20199;-67
2023/10/20 02:19:51;;;;;;;29.88;18.13;;;8.80;99.90;;;;;;4998254;28;20203;-66
2023/10/20 02:22:17;;;;;;;30.08;18.55;;;8.80;99.90;;;;;;5014341;28;20226;-67
2023/10/20 02:24:44;;;;;;;33.72;19.45;;;8.80;99.90;;;;;;5031626;28;20613;-69
2023/10/20 02:27:10;;;;;;;31.48;19.70;;;8.80;99.90;;;;;;5031544;28;20238;-67
2023/10/20 02:29:36;;;;;;;30.80;19.05;;;8.80;99.90;;;;;;5013953;28;20192;-67
2023/10/20 02:32:03;;;;;;;33.03;18.88;;;8.80;99.90;;;;;;5013848;28;20184;-68
2023/10/20 02:34:29;;;;;;;30.20;19.40;;;8.80;99.90;;;;;;5031459;28;20247;-68
2023/10/20 02:36:54;;;;;;;35.97;22.00;;;8.80;99.90;;;;;;5034412;28;20251;-66
2023/10/20 02:39:20;;;;;;;38.42;20.75;;;8.80;99.90;;;;;;5035588;28;20191;-67
2023/10/20 02:41:46;;;;;;;33.55;20.70;;;8.80;99.90;;;;;;5035208;28;20172;-68
2023/10/20 02:44:13;;;;;;;34.10;20.83;;;8.80;99.90;;;;;;5017674;28;20191;-68
2023/10/20 02:46:39;;;;;;;33.50;20.38;;;8.70;99.90;;;;;;5034767;28;20211;-67
2023/10/20 02:49:05;;;;;;;33.15;20.58;;;8.70;99.90;;;;;;5035100;28;20195;-67
2023/10/20 02:51:31;;;;;;;35.50;19.80;;;8.70;99.90;;;;;;5001101;28;20177;-68
2023/10/20 02:53:57;;;;;;;30.23;18.42;;;8.70;99.90;;;;;;5017067;28;20179;-67
2023/10/20 02:56:23;;;;;;;33.55;21.35;;;8.70;99.90;;;;;;5035315;28;20562;-68
2023/10/20 02:58:49;;;;;;;33.95;21.23;;;8.80;99.90;;;;;;5016849;28;20246;-67
2023/10/20 03:01:17;;;;;;;39.92;21.88;;;8.70;99.90;;;;;;5034823;28;20203;-66
2023/10/20 03:03:44;;;;;;;33.38;20.95;;;8.70;99.90;;;;;;5016798;28;20187;-66
2023/10/20 03:06:10;;;;;;;37.92;22.63;;;8.70;99.90;;;;;;5016753;28;20191;-66
2023/10/20 03:08:38;;;;;;;32.03;18.80;;;8.70;99.90;;;;;;5017309;28;20580;-68
2023/10/20 03:11:08;;;;;;;34.03;22.10;;;8.70;99.90;;;;;;5016954;28;20180;-67
2023/10/20 03:13:34;;;;;;;35.08;20.45;;;8.70;99.90;;;;;;5017690;28;20176;-67
2023/10/20 03:16:00;;;;;;;36.72;21.02;;;8.70;99.90;;;;;;5017148;28;20176;-66
2023/10/20 03:18:28;;;;;;;34.97;20.30;;;8.70;99.90;;;;;;5016731;28;20180;-66
2023/10/20 03:20:54;;;;;;;40.28;22.42;;;8.70;99.90;;;;;;5000599;28;20183;-67
2023/10/20 03:23:21;;;;;;;34.22;21.65;;;8.70;99.90;;;;;;5034049;28;20236;-66
2023/10/20 03:25:48;;;;;;;29.85;19.50;;;8.70;99.90;;;;;;5016806;28;20257;-66
2023/10/20 03:28:14;;;;;;;34.70;20.23;;;8.70;99.90;;;;;;5016067;28;20261;-67
2023/10/20 03:30:41;;;;;;;33.88;18.80;;;8.70;99.90;;;;;;5034009;28;20183;-66
2023/10/20 03:33:09;;;;;;;33.10;20.75;;;8.70;99.90;;;;;;5034492;28;20183;-68
2023/10/20 03:35:36;;;;;;;37.50;22.10;;;8.70;99.90;;;;;;5016491;28;20176;-67
2023/10/20 03:38:03;;;;;;;29.33;18.45;;;8.60;99.90;;;;;;5016297;28;20628;-67
2023/10/20 03:40:40;;;;;;;31.27;20.05;;;8.70;99.90;;;;;;5016308;28;20274;-66
2023/10/20 03:43:08;;;;;;;30.95;19.23;;;8.60;99.90;;;;;;5016067;28;20625;-68
2023/10/20 03:45:42;;;;;;;33.67;19.52;;;8.60;99.90;;;;;;5033868;28;20756;-67
2023/10/20 03:48:09;;;;;;;25.08;17.27;;;8.60;99.90;;;;;;5033623;28;20196;-67
2023/10/20 03:50:38;;;;;;;30.52;19.77;;;8.60;99.90;;;;;;5033981;28;20188;-66
2023/10/20 03:53:05;;;;;;;31.25;18.98;;;8.60;99.90;;;;;;5015862;28;20183;-67
2023/10/20 03:55:32;;;;;;;29.48;18.10;;;8.60;99.90;;;;;;5034277;28;20668;-66
2023/10/20 03:57:58;;;;;;;26.90;16.50;;;8.60;99.90;;;;;;5015351;28;20232;-66
2023/10/20 04:00:31;;;;;;;29.00;18.67;;;8.60;99.90;;;;;;5033172;28;20199;-66
2023/10/20 04:02:57;;;;;;;27.48;18.63;;;8.60;99.90;;;;;;5033678;28;20301;-66
2023/10/20 04:05:25;;;;;;;29.25;18.25;;;8.60;99.90;;;;;;5033883;28;20180;-65
2023/10/20 04:07:51;;;;;;;25.33;16.85;;;8.60;99.90;;;;;;5015828;28;20221;-66
2023/10/20 04:10:21;;;;;;;26.90;17.33;;;8.60;99.90;;;;;;5015908;28;20215;-66
2023/10/20 04:12:48;;;;;;;14.82;9.57;;;8.60;99.90;;;;;;5016401;28;20274;-68
2023/10/20 04:15:19;;;;;;;24.88;16.40;;;8.60;99.90;;;;;;5033135;28;20188;-67
2023/10/20 04:17:56;;;;;;;19.83;13.80;;;8.60;99.90;;;;;;5033581;28;20191;-67
2023/10/20 04:20:23;;;;;;;23.50;15.73;;;8.60;99.90;;;;;;5033284;28;20238;-66
2023/10/20 04:22:50;;;;;;;24.15;15.40;;;8.60;99.90;;;;;;5033539;28;20206;-67
2023/10/20 04:25:19;;;;;;;21.63;14.05;;;8.60;99.90;;;;;;5032742;28;20191;-66
2023/10/20 04:27:49;;;;;;;20.38;14.45;;;8.60;99.90;;;;;;5032836;28;20242;-66
2023/10/20 04:57:52;;;;;;;15.82;11.00;;;8.70;99.90;;;;;;5032358;28;20230;-67
2023/10/20 05:10:37;;;;;;;16.23;11.27;;;8.70;99.90;;;;;;5032663;28;20172;-67
2023/10/20 05:13:04;;;;;;;14.90;9.75;;;8.70;99.90;;;;;;5032411;28;20167;-67
2023/10/20 05:15:38;;;;;;;16.08;9.52;;;8.70;99.90;;;;;;5032742;28;20192;-67
2023/10/20 05:18:14;;;;;;;12.10;9.07;;;8.70;99.90;;;;;;5032584;28;20584;-68
2023/10/20 05:20:42;;;;;;;12.02;8.48;;;8.70;99.90;;;;;;5032762;28;20199;-67
2023/10/20 05:23:09;;;;;;;14.10;8.95;;;8.70;99.90;;;;;;5032491;28;20186;-68
2023/10/20 05:25:35;;;;;;;12.52;9.30;;;8.70;99.90;;;;;;5014711;28;20183;-68
2023/10/20 05:28:01;;;;;;;13.93;9.32;;;8.80;99.90;;;;;;5031981;28;20222;-67
2023/10/20 05:30:27;;;;;;;13.23;8.80;;;8.80;99.90;;;;;;5031874;28;20184;-69
2023/10/20 05:32:53;;;;;;;12.75;8.20;;;8.80;99.90;;;;;;5032119;28;20604;-68
2023/10/20 05:35:19;;;;;;;13.27;8.52;;;8.80;99.90;;;;;;5032017;28;20184;-68
2023/10/20 05:37:45;;;;;;;11.48;8.60;;;8.80;99.90;;;;;;5031227;28;20910;-68
2023/10/20 05:40:14;;;;;;;9.52;5.75;;;8.90;99.90;;;;;;5031897;28;20188;-69
2023/10/20 05:42:40;;;;;;;9.82;6.85;;;8.90;99.90;;;;;;5014928;28;20540;-68
2023/10/20 05:45:09;;;;;;;10.45;8.00;;;8.90;99.90;;;;;;5032107;28;20191;-68
2023/10/20 05:47:36;;;;;;;12.48;7.80;;;8.90;99.90;;;;;;5031828;28;20230;-68
2023/10/20 05:50:03;;;;;;;15.52;7.47;;;8.90;99.90;;;;;;5032021;28;20191;-67
2023/10/20 05:52:29;;;;;;;9.05;5.90;;;8.90;99.90;;;;;;5031682;28;20677;-68
2023/10/20 05:54:57;;;;;;;11.93;7.10;;;8.90;99.90;;;;;;5031779;28;20183;-67
2023/10/20 05:57:25;;;;;;;9.77;6.25;;;8.90;99.90;;;;;;5031564;28;20239;-68
2023/10/20 05:59:51;;;;;;;9.52;6.70;;;8.90;99.90;;;;;;5031652;28;20649;-66
2023/10/20 06:02:16;;;;;;;10.95;6.60;;;8.90;99.90;;;;;;5031456;28;20223;-68
2023/10/20 06:04:42;;;;;;;12.23;6.40;;;8.90;99.90;;;;;;5031766;28;20184;-68
2023/10/20 06:07:08;;;;;;;10.35;6.15;;;8.90;99.90;;;;;;5013427;28;20203;-68
2023/10/20 06:09:34;;;;;;;8.88;5.40;;;8.90;99.90;;;;;;5032374;28;20180;-68
2023/10/20 06:12:02;;;;;;;8.13;5.93;;;8.80;99.90;;;;;;5035517;28;20186;-69
2023/10/20 06:14:28;;;;;;;8.30;5.50;;;8.90;99.90;;;;;;5035756;28;20188;-68
2023/10/20 06:16:54;;;;;;;6.85;4.68;;;8.90;99.90;;;;;;5018339;28;20180;-68
2023/10/20 06:19:21;;;;;;;6.60;4.38;;;8.90;99.90;;;;;;5035427;28;20188;-68
2023/10/20 06:21:47;;;;;;;5.97;4.15;;;8.90;99.90;;;;;;5035909;28;20258;-68
2023/10/20 06:24:14;;;;;;;6.85;4.35;;;8.90;99.90;;;;;;5035106;28;20180;-68
2023/10/20 06:26:40;;;;;;;7.03;4.20;;;8.90;99.90;;;;;;5017817;28;20253;-67
2023/10/20 06:29:26;;;;;;;6.05;3.90;;;8.80;99.90;;;;;;5017986;28;20192;-68
2023/10/20 06:34:41;;;;;;;8.10;4.72;;;8.80;99.90;;;;;;5004010;28;20188;-66
2023/10/20 06:37:14;;;;;;;5.47;4.32;;;8.90;99.90;;;;;;5035190;28;20184;-69
2023/10/20 06:39:40;;;;;;;7.05;4.47;;;8.80;99.90;;;;;;5035038;28;20179;-68
2023/10/20 06:42:06;;;;;;;9.82;4.25;;;8.80;99.90;;;;;;5017231;28;20180;-66
2023/10/20 06:44:36;;;;;;;6.80;3.88;;;8.90;99.90;;;;;;5017869;28;20176;-66
2023/10/20 06:47:02;;;;;;;6.45;4.32;;;8.90;99.90;;;;;;5034774;28;20577;-69
2023/10/20 06:49:28;;;;;;;8.65;4.20;;;8.80;99.90;;;;;;5033260;28;20271;-68
2023/10/20 06:51:54;;;;;;;9.93;4.55;;;8.80;99.90;;;;;;5017553;28;20648;-68
2023/10/20 06:54:20;;;;;;;6.15;4.20;;;8.70;99.90;;;;;;5033707;28;20238;-67
2023/10/20 06:56:46;;;;;;;7.10;4.60;;;8.70;99.90;;;;;;5033664;28;20211;-68
2023/10/20 06:59:16;;;;;;;7.03;4.18;;;8.70;99.90;;;;;;5035418;28;20321;-67
2023/10/20 07:01:43;;;;;;;6.72;4.45;;;8.70;99.90;;;;;;5017320;28;20196;-68
2023/10/20 07:04:09;;;;;;;5.78;4.43;;;8.70;99.90;;;;;;5035023;28;20187;-69
2023/10/20 07:06:40;;;;;;;9.25;4.50;;;8.80;99.90;;;;;;5035021;28;20199;-69
2023/10/20 07:09:13;;;;;;;5.20;4.30;;;8.80;99.90;;;;;;5017921;28;20195;-65
2023/10/20 07:11:40;;;;;;;4.63;3.78;;;8.70;99.90;;;;;;5035167;28;20176;-72
2023/10/20 07:14:06;;;;;;;6.43;4.30;;;8.70;99.90;;;;;;5016703;28;20214;-66
2023/10/20 07:16:33;;;;;;;5.38;3.90;;;8.70;99.90;;;;;;5034648;28;20264;-68
2023/10/20 07:19:00;;;;;;;8.75;4.15;;;8.70;99.90;;;;;;5034970;28;20180;-68
2023/10/20 07:21:27;;;;;;;5.95;4.18;;;8.70;99.90;;;;;;5034438;28;20238;-67
2023/10/20 07:23:53;;;;;;;6.07;3.95;;;8.70;99.90;;;;;;5034266;28;20271;-66
2023/10/20 07:26:19;;;;;;;8.75;4.53;;;8.60;99.90;;;;;;5034704;28;20199;-65
2023/10/20 07:28:45;;;;;;;8.95;3.90;;;8.60;99.90;;;;;;5034577;28;20192;-66
2023/10/20 07:31:12;;;;;;;7.22;4.03;;;8.60;99.90;;;;;;5034186;28;20241;-65
2023/10/20 07:33:38;;;;;;;5.32;4.20;;;8.60;99.90;;;;;;5000703;28;20184;-68
2023/10/20 07:36:05;;;;;;;6.88;3.38;;;8.70;99.90;;;;;;5034578;28;20226;-66
2023/10/20 07:38:31;;;;;;;6.30;3.70;;;8.70;99.90;;;;;;5034242;28;20636;-70
2023/10/20 07:41:06;;;;;;;5.60;4.00;;;8.60;99.90;;;;;;5034022;28;20187;-66
2023/10/20 07:43:33;;;;;;;5.38;4.00;;;8.60;99.90;;;;;;5016304;28;20274;-67
2023/10/20 07:45:59;;;;;;;7.43;4.30;;;8.60;99.90;;;;;;5033766;28;20597;-67
2023/10/20 07:48:28;;;;;;;5.28;3.80;;;8.60;99.90;;;;;;5033882;28;20210;-69
2023/10/20 07:50:56;;;;;;;5.97;3.97;;;8.50;99.90;;;;;;5015911;28;20670;-67
2023/10/20 07:53:22;;;;;;;5.43;3.95;;;8.60;99.90;;;;;;5033817;28;20192;-66
2023/10/20 07:55:48;;;;;;;7.13;4.38;;;8.50;99.90;;;;;;5033513;28;20684;-68
2023/10/20 07:58:15;;;;;;;8.05;4.60;;;8.50;99.90;;;;;;5015978;28;20293;-67
2023/10/20 08:00:41;;;;;;;13.65;7.50;;;8.40;99.90;;;;;;5033682;28;20215;-67
2023/10/20 08:03:08;;;;;;;9.95;5.05;;;8.40;99.90;;;;;;5033891;28;20176;-67
2023/10/20 08:05:35;;;;;;;6.88;4.93;;;8.40;99.90;;;;;;5033698;28;20180;-68
2023/10/20 08:08:01;;;;;;;7.68;4.80;;;8.50;99.90;;;;;;5034100;28;20723;-66
2023/10/20 08:10:27;;;;;;;7.57;4.18;;;8.40;99.90;;;;;;5033543;28;20635;-68
2023/10/20 08:12:54;;;;;;;6.18;4.95;;;8.40;99.90;;;;;;5033989;28;20613;-68
2023/10/20 08:15:20;;;;;;;7.07;4.50;;;8.40;99.90;;;;;;5033769;28;20196;-67
2023/10/20 08:17:48;;;;;;;6.03;4.10;;;8.40;99.90;;;;;;5033148;28;20274;-67
2023/10/20 08:20:14;;;;;;;7.63;4.95;;;8.40;99.90;;;;;;5031871;28;20692;-67
2023/10/20 08:22:40;;;;;;;7.38;4.70;;;8.40;99.90;;;;;;5033272;28;20184;-68
2023/10/20 08:25:08;;;;;;;7.82;2.80;;;8.50;99.90;;;;;;5033180;28;20187;-68
2023/10/20 08:27:34;;;;;;;5.53;4.18;;;8.40;99.90;;;;;;5032685;28;20353;-69
2023/10/20 08:30:00;;;;;;;4.88;3.30;;;8.40;99.90;;;;;;5032900;28;20191;-68
2023/10/20 08:32:26;;;;;;;4.75;2.97;;;8.30;99.90;;;;;;5031463;28;20684;-69
2023/10/20 08:34:53;;;;;;;6.50;3.55;;;8.30;99.90;;;;;;5032038;28;20263;-69
2023/10/20 08:37:19;;;;;;;6.68;3.40;;;8.30;99.90;;;;;;5033068;28;20180;-68
2023/10/20 08:39:45;;;;;;;6.85;3.78;;;8.30;99.90;;;;;;5032838;28;20653;-66
2023/10/20 08:42:18;;;;;;;5.63;3.60;;;8.30;99.90;;;;;;5032878;28;20215;-69
2023/10/20 08:44:45;;;;;;;5.05;3.63;;;8.30;99.90;;;;;;5032535;28;20679;-68
2023/10/20 08:47:13;;;;;;;4.85;3.00;;;8.20;99.90;;;;;;5015527;28;20577;-68
2023/10/20 08:49:40;;;;;;;7.45;2.90;;;8.20;99.90;;;;;;5032448;28;20183;-66
2023/10/20 08:52:10;;;;;;;5.05;2.88;;;8.20;99.90;;;;;;5032819;28;20186;-66
2023/10/20 08:54:37;;;;;;;5.18;3.33;;;8.20;99.90;;;;;;5015019;28;20188;-68
2023/10/20 08:57:04;;;;;;;4.70;3.13;;;8.20;99.90;;;;;;5032340;28;20203;-66
2023/10/20 08:59:30;;;;;;;5.00;3.30;;;8.20;99.90;;;;;;5033538;28;20565;-66
2023/10/20 09:01:56;;;;;;;5.68;3.45;;;8.20;99.90;;;;;;5032655;28;20191;-67
2023/10/20 09:04:25;;;;;;;4.82;3.50;;;8.20;99.90;;;;;;5031721;28;20270;-68
2023/10/20 09:06:52;;;;;;;6.95;4.35;;;8.10;99.90;;;;;;5032277;28;20203;-68
2023/10/20 09:09:19;;;;;;;4.88;3.22;;;8.10;99.90;;;;;;5015240;28;20265;-67
2023/10/20 09:11:46;;;;;;;7.68;3.70;;;8.10;99.90;;;;;;5032384;28;20183;-67
2023/10/20 09:14:12;;;;;;;5.55;3.72;;;8.10;99.90;;;;;;5014742;28;20255;-67
2023/10/20 09:16:39;;;;;;;7.93;2.88;;;8.10;99.90;;;;;;5032348;28;20172;-66
2023/10/20 09:19:06;;;;;;;4.57;3.00;;;8.00;99.90;;;;;;5032172;28;20184;-64
2023/10/20 09:21:32;;;;;;;4.93;3.28;;;8.00;99.90;;;;;;5032475;28;20207;-65
2023/10/20 09:24:03;;;;;;;4.25;3.25;;;8.00;99.90;;;;;;5032470;28;20218;-65
2023/10/20 09:26:32;;;;;;;3.33;2.70;;;8.00;99.90;;;;;;5032410;28;20163;-63
2023/10/20 09:28:58;;;;;;;3.40;2.38;;;8.00;99.90;;;;;;5031926;28;20184;-63
2023/10/20 09:31:26;;;;;;;3.22;2.55;;;8.00;99.90;;;;;;5032204;28;20184;-65
2023/10/20 09:33:53;;;;;;;4.22;2.75;;;8.00;99.90;;;;;;5032425;28;20172;-66
2023/10/20 09:36:19;;;;;;;4.68;3.10;;;7.90;99.90;;;;;;5014099;28;20187;-66
2023/10/20 09:38:50;;;;;;;3.53;2.60;;;7.90;99.90;;;;;;5032208;28;20237;-63
2023/10/20 09:41:20;;;;;;;3.38;2.45;;;7.90;99.90;;;;;;5032263;28;20574;-65
2023/10/20 09:44:00;;;;;;;2.60;1.85;;;7.90;99.90;;;;;;5031766;28;20226;-66
2023/10/20 09:46:48;;;;;;;3.15;2.38;;;7.90;99.90;;;;;;5014634;28;20160;-65
2023/10/20 09:49:15;;;;;;;3.22;2.10;;;7.90;99.90;;;;;;5031960;28;20208;-66
2023/10/20 09:51:44;;;;;;;3.13;2.13;;;7.90;99.90;;;;;;5031716;28;20676;-64
2023/10/20 09:54:12;;;;;;;3.55;2.30;;;7.80;99.90;;;;;;5031634;28;20180;-65
2023/10/20 09:56:41;;;;;;;3.72;2.38;;;7.80;99.90;;;;;;5030432;28;20183;-66
2023/10/20 09:59:08;;;;;;;2.85;2.20;;;7.80;99.90;;;;;;5031702;28;20266;-66
2023/10/20 10:01:34;;;;;;;3.08;2.08;;;7.80;99.90;;;;;;5014035;28;20330;-63
2023/10/20 10:04:04;;;;;;;3.45;2.20;;;7.90;99.90;;;;;;5031457;28;20224;-64
2023/10/20 10:06:37;;;;;;;2.55;2.13;;;7.90;99.90;;;;;;5014528;28;20271;-64
2023/10/20 10:09:05;;;;;;;4.38;2.20;;;7.90;99.90;;;;;;5032328;28;20175;-64
2023/10/20 10:11:38;;;;;;;7.63;2.72;;;7.90;99.90;;;;;;5013873;28;20180;-65
2023/10/20 10:14:05;;;;;;;2.47;1.92;;;7.80;99.90;;;;;;5013846;28;20168;-63
2023/10/20 10:16:31;;;;;;;4.32;2.00;;;7.90;99.90;;;;;;5031365;28;20187;-65
2023/10/20 10:19:18;;;;;;;2.45;2.08;;;7.90;99.90;;;;;;5013764;28;20616;-64
2023/10/20 10:21:49;;;;;;;4.88;1.80;;;7.80;99.90;;;;;;5031926;28;20583;-68
2023/10/20 10:24:20;;;;;;;1.75;1.58;;;7.80;99.90;;;;;;5032134;28;20689;-64
2023/10/20 10:26:50;;;;;;;3.33;2.10;;;7.80;99.90;;;;;;5031357;28;20212;-63
2023/10/20 10:29:22;;;;;;;2.45;1.73;;;7.80;99.90;;;;;;5032005;28;20271;-65
2023/10/20 10:31:48;;;;;;;3.38;2.10;;;7.80;99.90;;;;;;5014034;28;20176;-65
2023/10/20 10:34:14;;;;;;;2.40;1.73;;;7.80;99.90;;;;;;5031140;28;20656;-63
2023/10/20 10:36:47;;;;;;;2.35;1.48;;;7.80;99.90;;;;;;5031302;28;20184;-64
2023/10/20 10:39:27;;;;;;;3.17;2.10;;;7.80;99.90;;;;;;5031264;28;20180;-67
2023/10/20 10:41:53;;;;;;;2.42;1.88;;;7.80;99.90;;;;;;5031041;28;20172;-64
2023/10/20 10:44:23;;;;;;;2.85;1.63;;;7.80;99.90;;;;;;5031385;28;20346;-66
2023/10/20 10:46:51;;;;;;;2.03;1.80;;;7.80;99.90;;;;;;5030651;28;20266;-65
2023/10/20 10:49:17;;;;;;;2.13;1.80;;;7.70;99.90;;;;;;5031378;28;20669;-66
2023/10/20 10:51:47;;;;;;;2.05;1.38;;;7.70;99.90;;;;;;5031108;28;20219;-63
2023/10/20 10:54:13;;;;;;;2.42;1.52;;;7.70;99.90;;;;;;5030768;28;20187;-62
2023/10/20 10:56:43;;;;;;;3.20;1.83;;;7.80;99.90;;;;;;5030928;28;20180;-64
2023/10/20 10:59:12;;;;;;;2.67;1.95;;;7.70;99.90;;;;;;5017064;28;20227;-67
2023/10/20 11:01:39;;;;;;;3.63;1.70;;;7.70;99.90;;;;;;5034344;28;20191;-64
2023/10/20 11:04:10;;;;;;;1.67;1.55;;;7.60;99.90;;;;;;5034851;28;20180;-64
2023/10/20 11:06:38;;;;;;;5.40;1.75;;;7.60;99.90;;;;;;5016989;28;20157;-68
2023/10/20 11:09:11;;;;;;;2.90;1.42;;;7.60;99.90;;;;;;5035151;28;20600;-69
2023/10/20 11:11:42;;;;;;;1.48;1.38;;;7.60;99.90;;;;;;5017012;28;20637;-68
2023/10/20 11:14:12;;;;;;;2.85;1.85;;;7.60;99.90;;;;;;5034438;28;20184;-64
2023/10/20 11:16:38;;;;;;;1.73;1.60;;;7.50;99.90;;;;;;5034928;28;20195;-67
2023/10/20 11:19:05;;;;;;;2.28;1.77;;;7.50;99.90;;;;;;5016612;28;20600;-62
2023/10/20 11:21:46;;;;;;;2.42;1.85;;;7.50;99.90;;;;;;5016572;28;20267;-63
2023/10/20 11:24:28;;;;;;;2.33;1.70;;;7.50;99.90;;;;;;5034522;28;20176;-62
2023/10/20 11:27:11;;;;;;;1.95;1.50;;;7.50;99.90;;;;;;5016641;28;20200;-62
2023/10/20 11:29:37;;;;;;;2.97;1.58;;;7.50;99.90;;;;;;5034331;28;20235;-62
2023/10/20 11:32:13;;;;;;;1.80;1.70;;;7.50;99.90;;;;;;5016220;28;20267;-65
2023/10/20 11:34:39;;;;;;;1.92;1.73;;;7.50;99.90;;;;;;5034253;28;20171;-65
2023/10/20 11:37:06;;;;;;;3.17;2.10;;;7.50;99.90;;;;;;5034558;28;20190;-65
2023/10/20 11:39:38;;;;;;;2.35;1.50;;;7.50;99.90;;;;;;5000714;28;20211;-62
2023/10/20 11:42:04;;;;;;;2.75;1.92;;;7.40;99.90;;;;;;5016811;28;20195;-65
2023/10/20 11:44:30;;;;;;;2.63;1.58;;;7.40;99.90;;;;;;5033761;28;20184;-62
2023/10/20 11:46:57;;;;;;;2.92;1.65;;;7.50;99.90;;;;;;5033675;28;20203;-61
2023/10/20 11:49:26;;;;;;;3.40;1.67;;;7.50;99.90;;;;;;5016369;28;20271;-61
2023/10/20 11:51:53;;;;;;;3.30;1.55;;;7.50;99.90;;;;;;5033869;28;20184;-66
2023/10/20 11:54:19;;;;;;;2.78;1.63;;;7.50;99.90;;;;;;5033547;28;20620;-67
2023/10/20 11:56:45;;;;;;;3.45;1.77;;;7.60;99.90;;;;;;5033679;28;20184;-70
2023/10/20 11:59:15;;;;;;;2.28;1.50;;;7.50;99.90;;;;;;5033562;28;20293;-63
2023/10/20 12:01:42;;;;;;;8.85;3.28;;;7.50;99.90;;;;;;5033931;28;20173;-69
2023/10/20 12:04:08;;;;;;;2.88;1.92;;;7.50;99.90;;;;;;5033206;28;20188;-61
2023/10/20 12:06:38;;;;;;;3.88;2.10;;;7.50;99.90;;;;;;5016109;28;20184;-63
2023/10/20 12:09:10;;;;;;;2.80;2.08;;;7.60;99.90;;;;;;5033281;28;20498;-62
2023/10/20 12:11:38;;;;;;;3.35;1.90;;;7.50;99.90;;;;;;5015611;28;20218;-64
2023/10/20 12:14:04;;;;;;;3.55;1.80;;;7.60;99.90;;;;;;4998506;28;20202;-62
2023/10/20 12:16:30;;;;;;;2.70;1.60;;;7.60;99.90;;;;;;5033383;28;20194;-70
2023/10/20 12:19:04;;;;;;;2.40;1.85;;;7.60;99.90;;;;;;5015460;28;20171;-70
2023/10/20 12:21:30;;;;;;;3.53;1.52;;;7.60;99.90;;;;;;5033534;28;20180;-70
2023/10/20 12:23:56;;;;;;;3.35;2.00;;;7.60;99.90;;;;;;5033021;28;20184;-60
2023/10/20 12:26:22;;;;;;;3.65;2.50;;;7.70;99.90;;;;;;5033056;28;20220;-66
2023/10/20 12:28:50;;;;;;;2.70;1.95;;;7.60;99.90;;;;;;5015128;28;20322;-70
2023/10/20 12:31:16;;;;;;;2.78;1.75;;;7.60;99.90;;;;;;5033124;28;20266;-64
2023/10/20 12:33:44;;;;;;;2.47;1.48;;;7.60;99.90;;;;;;5032712;28;20215;-64
2023/10/20 12:36:13;;;;;;;2.72;1.70;;;7.60;99.90;;;;;;5015208;28;20548;-62
2023/10/20 12:38:45;;;;;;;3.60;1.52;;;7.60;99.90;;;;;;5014756;28;20188;-63
2023/10/20 12:41:11;;;;;;;3.40;1.77;;;7.60;99.90;;;;;;5033059;28;20176;-64
2023/10/20 12:43:37;;;;;;;2.63;1.73;;;7.60;99.90;;;;;;5032730;28;20236;-65
2023/10/20 12:46:04;;;;;;;1.80;1.70;;;7.60;99.90;;;;;;5032584;28;20184;-70
2023/10/20 12:48:30;;;;;;;2.35;1.60;;;7.60;99.90;;;;;;5032804;28;20212;-63
2023/10/20 12:50:57;;;;;;;4.10;1.60;;;7.60;99.90;;;;;;5032708;28;20187;-64
2023/10/20 12:53:23;;;;;;;1.27;1.17;;;7.70;99.90;;;;;;5033186;28;20206;-70
2023/10/20 12:55:53;;;;;;;1.70;1.30;;;7.70;99.90;;;;;;5032802;28;20191;-70
2023/10/20 12:58:20;;;;;;;1.52;1.42;;;7.60;99.90;;;;;;5031159;28;20322;-62
2023/10/20 13:00:46;;;;;;;2.35;1.60;;;7.60;99.90;;;;;;5032917;28;20191;-70
2023/10/20 13:03:12;;;;;;;3.22;2.00;;;7.60;99.90;;;;;;5014676;28;20287;-68
2023/10/20 13:05:37;;;;;;;4.07;1.95;;;7.60;99.90;;;;;;5032373;28;20214;-66
2023/10/20 13:08:04;;;;;;;3.95;1.52;;;7.60;99.90;;;;;;5032480;28;20204;-62
2023/10/20 13:10:30;;;;;;;2.30;1.58;;;7.60;99.90;;;;;;5032429;28;20244;-69
2023/10/20 13:12:57;;;;;;;2.17;1.30;;;7.60;99.90;;;;;;5032059;28;20176;-64
2023/10/20 13:15:24;;;;;;;2.22;1.90;;;7.60;99.90;;;;;;5032527;28;20237;-62
2023/10/20 13:17:50;;;;;;;1.73;1.33;;;7.60;99.90;;;;;;5014238;28;20195;-67
2023/10/20 13:20:16;;;;;;;2.45;1.25;;;7.60;99.90;;;;;;5032150;28;20176;-60
2023/10/20 13:22:42;;;;;;;1.38;1.27;;;7.60;99.90;;;;;;5014576;28;20200;-69
2023/10/20 13:25:09;;;;;;;13.25;1.70;;;7.60;99.90;;;;;;5032690;28;20381;-62
2023/10/20 13:27:35;;;;;;;1.58;1.48;;;7.60;99.90;;;;;;5031559;28;20204;-69
2023/10/20 13:30:02;;;;;;;1.88;1.50;;;7.50;99.90;;;;;;5013931;28;20230;-67
2023/10/20 13:32:28;;;;;;;1.38;1.27;;;7.60;99.90;;;;;;5032327;28;20184;-63